Time;durP1;ratioP1;P1;durP2;ratioP2;P2;SDS_P1;SDS_P2;PMS_P1;PMS_P2;Temp;Humidity;BMP_temperature;BMP_pressure;BME280_temperature;BME280_humidity;BME280_pressure;Samples;Min_cycle;Max_cycle;Signal;HPM_P1;HPM_P2
2021/11/03 00:21:04;;;;;;;13.70;10.80;;;;;;;18.93;52.38;100344.40;115163;1198;72061;-85
2021/11/03 00:23:30;;;;;;;14.40;11.10;;;;;;;18.93;52.32;100353.82;115263;1199;65991;-86
2021/11/03 00:26:26;;;;;;;15.60;11.40;;;;;;;18.94;52.27;100352.02;115319;1198;57972;-85
2021/11/03 00:29:30;;;;;;;13.90;11.60;;;;;;;18.92;52.35;100352.96;115037;1202;58104;-85
2021/11/03 00:31:59;;;;;;;13.30;11.20;;;;;;;18.94;52.32;100358.77;115019;1202;64977;-85
2021/11/03 00:34:27;;;;;;;13.00;10.60;;;;;;;18.94;52.45;100356.63;115067;1202;64482;-85
2021/11/03 00:37:07;;;;;;;13.90;11.40;;;;;;;18.94;52.28;100351.80;115046;1202;57923;-85
2021/11/03 00:39:58;;;;;;;14.00;10.60;;;;;;;18.94;52.37;100350.91;114951;1203;58824;-85
2021/11/03 00:42:54;;;;;;;;;;;;;;;;;;;;;
2021/11/03 00:55:19;;;;;;;13.90;10.80;;;;;;;18.94;52.40;100370.54;114902;1198;72055;-86
2021/11/03 00:57:57;;;;;;;14.70;10.80;;;;;;;18.93;52.29;100372.00;114995;1202;65143;-85
2021/11/03 01:00:45;;;;;;;13.00;10.60;;;;;;;18.93;52.34;100369.14;114849;1203;59918;-86
2021/11/03 01:03:40;;;;;;;12.70;10.40;;;;;;;18.93;52.45;100374.67;114867;1203;60080;-85
2021/11/03 01:06:28;;;;;;;16.30;11.50;;;;;;;18.93;52.21;100377.88;114899;1202;72303;-86
2021/11/03 01:09:03;;;;;;;14.00;10.80;;;;;;;18.94;52.29;100381.06;114914;1202;74733;-85
2021/11/03 01:11:54;;;;;;;14.00;10.70;;;;;;;18.93;52.25;100385.93;114865;1203;58521;-85
2021/11/03 01:15:09;;;;;;;12.70;10.50;;;;;;;18.93;52.32;100393.41;114861;1203;58915;-85
2021/11/03 01:17:54;;;;;;;;;;;;;;;;;;;;;
2021/11/03 01:21:09;;;;;;;;;;;;;;;;;;;;;
2021/11/03 01:23:52;;;;;;;;;;;;;;;;;;;;;
2021/11/03 01:27:04;;;;;;;13.60;11.10;;;;;;;18.92;52.33;100400.77;114848;1205;60208;-85
2021/11/03 01:30:31;;;;;;;;;;;;;;;;;;;;;
2021/11/03 01:33:34;;;;;;;13.40;10.60;;;;;;;18.92;52.31;100399.38;114471;1209;74898;-85
2021/11/03 01:36:51;;;;;;;;;;;;;;;;;;;;;
2021/11/03 02:07:58;;;;;;;12.50;9.90;;;;;;;18.88;52.21;100443.46;114491;1196;60007;31
2021/11/03 02:10:28;;;;;;;12.50;10.10;;;;;;;18.89;52.26;100443.26;115309;1200;73409;-84
2021/11/03 02:12:57;;;;;;;12.60;10.20;;;;;;;18.89;52.35;100446.61;115240;1200;72650;-84
2021/11/03 02:15:33;;;;;;;13.10;10.70;;;;;;;18.90;52.36;100456.05;115281;1200;57905;-84
2021/11/03 02:18:30;;;;;;;11.90;9.90;;;;;;;18.90;52.31;100456.58;115292;1200;58767;-84
2021/11/03 02:21:22;;;;;;;;;;;;;;;;;;;;;
2021/11/03 02:24:50;;;;;;;12.70;10.60;;;;;;;18.90;52.24;100455.67;114950;1202;74586;-84
2021/11/03 02:28:11;;;;;;;;;;;;;;;;;;;;;
2021/11/03 02:31:30;;;;;;;;;;;;;;;;;;;;;
2021/11/03 02:34:34;;;;;;;12.10;10.20;;;;;;;18.89;52.30;100469.83;114715;1205;70982;-84
2021/11/03 02:37:49;;;;;;;13.10;10.20;;;;;;;18.89;52.21;100469.82;114632;1206;73458;-84
2021/11/03 02:40:48;;;;;;;11.80;9.70;;;;;;;18.90;52.18;100480.13;114587;1208;59849;-84
2021/11/03 02:43:59;;;;;;;12.50;9.80;;;;;;;18.89;52.13;100479.06;114607;1208;60080;-84
2021/11/03 02:46:49;;;;;;;;;;;;;;;;;;;;;
2021/11/03 02:50:02;;;;;;;;;;;;;;;;;;;;;
2021/11/03 02:52:42;;;;;;;11.70;9.70;;;;;;;18.89;52.27;100494.08;114490;1210;60127;-84
2021/11/03 02:55:43;;;;;;;;;;;;;;;;;;;;;
2021/11/03 02:59:02;;;;;;;;;;;;;;;;;;;;;
2021/11/03 03:02:12;;;;;;;;;;;;;;;;;;;;;
2021/11/03 03:05:40;;;;;;;;;;;;;;;;;;;;;
2021/11/03 03:08:42;;;;;;;11.40;9.30;;;;;;;18.88;52.25;100518.92;114110;1216;60179;-84
2021/11/03 03:11:07;;;;;;;11.60;9.70;;;;;;;18.89;52.28;100526.18;114145;1214;72477;-85
2021/11/03 03:13:53;;;;;;;13.00;10.50;;;;;;;18.88;52.30;100526.55;114243;1214;58824;-84
2021/11/03 03:17:10;;;;;;;;;;;;;;;;;;;;;
2021/11/03 03:20:03;;;;;;;13.10;10.20;;;;;;;18.88;52.35;100531.92;114245;1214;61065;-84
2021/11/03 03:23:22;;;;;;;;;;;;;;;;;;;;;
2021/11/03 03:29:16;;;;;;;12.10;9.30;;;;;;;18.87;52.28;100547.29;114616;1198;60022;-84
2021/11/03 03:32:16;;;;;;;;;;;;;;;;;;;;;
2021/11/03 03:35:26;;;;;;;;;;;;;;;;;;;;;
2021/11/03 03:38:52;;;;;;;;;;;;;;;;;;;;;
2021/11/03 03:42:07;;;;;;;12.10;9.90;;;;;;;18.87;52.31;100559.79;114988;1202;59880;-86
2021/11/03 03:45:11;;;;;;;11.60;9.80;;;;;;;18.87;52.28;100560.34;114940;1202;61070;-85
2021/11/03 03:48:04;;;;;;;13.10;10.10;;;;;;;18.87;52.23;100560.15;114890;1203;73407;-86
2021/11/03 03:51:22;;;;;;;12.70;9.80;;;;;;;18.87;52.18;100569.41;114618;1207;73789;-85
2021/11/03 03:54:36;;;;;;;;;;;;;;;;;;;;;
2021/11/03 03:58:03;;;;;;;12.40;9.60;;;;;;;18.86;52.25;100570.02;114493;1209;58957;-86
2021/11/03 04:01:24;;;;;;;;;;;;;;;;;;;;;
2021/11/03 04:04:30;;;;;;;11.40;9.90;;;;;;;18.86;52.26;100579.50;114491;1209;73433;-85
2021/11/03 04:07:35;;;;;;;;;;;;;;;;;;;;;
2021/11/03 04:10:25;;;;;;;12.50;9.60;;;;;;;18.86;52.23;100588.41;114510;1209;59108;-85
2021/11/03 04:13:08;;;;;;;13.50;10.30;;;;;;;18.86;52.29;100591.95;114453;1209;72401;-85
2021/11/03 04:16:36;;;;;;;12.20;10.50;;;;;;;18.86;52.23;100592.86;114485;1209;73462;-86
2021/11/03 05:01:24;;;;;;;13.80;10.80;;;;;;;18.82;52.28;100627.18;115117;1198;59972;-83
2021/11/03 05:03:59;;;;;;;13.10;10.30;;;;;;;18.82;52.35;100627.67;115221;1198;58038;-86
2021/11/03 05:07:33;;;;;;;12.50;10.60;;;;;;;18.82;52.26;100627.31;115250;1198;63353;-86
2021/11/03 05:10:53;;;;;;;;;;;;;;;;;;;;;
2021/11/03 05:14:46;;;;;;;13.10;10.00;;;;;;;18.82;52.29;100632.32;114853;1203;57965;-87
2021/11/03 05:52:46;;;;;;;;;;;;;;;;;;;;;
2021/11/03 05:55:42;;;;;;;12.80;9.70;;;;;;;18.82;52.31;100689.40;115321;1197;59996;-85
2021/11/03 05:58:37;;;;;;;12.60;10.10;;;;;;;18.82;52.26;100689.59;114996;1202;60072;-85
2021/11/03 06:01:18;;;;;;;13.40;10.70;;;;;;;18.82;52.21;100687.99;114919;1203;72327;-85
2021/11/03 06:03:48;;;;;;;14.30;10.40;;;;;;;18.82;52.27;100689.25;114833;1203;73300;-85
2021/11/03 06:06:34;;;;;;;13.20;10.50;;;;;;;18.82;52.25;100701.38;114953;1202;59382;-85
2021/11/03 06:09:05;;;;;;;13.90;10.10;;;;;;;18.82;52.30;100707.97;115059;1201;59785;-85
2021/11/03 06:12:05;;;;;;;13.20;10.40;;;;;;;18.82;52.15;100718.96;114990;1202;72306;-85
2021/11/03 06:14:31;;;;;;;14.00;10.30;;;;;;;18.82;52.28;100725.91;114807;1204;73267;-85
2021/11/03 06:17:08;;;;;;;16.20;10.70;;;;;;;18.83;52.28;100728.76;114716;1206;59965;-85
2021/11/03 06:19:46;;;;;;;14.20;10.50;;;;;;;18.83;52.33;100734.45;114742;1205;59894;-86
2021/11/03 06:22:12;;;;;;;15.10;10.10;;;;;;;18.83;52.19;100736.40;114769;1205;73451;-85
2021/11/03 06:24:39;;;;;;;15.50;10.10;;;;;;;18.83;52.20;100737.12;114737;1205;58468;-85
2021/11/03 06:27:50;;;;;;;15.20;10.90;;;;;;;18.83;52.24;100747.98;114795;1204;60215;-86
2021/11/03 06:31:15;;;;;;;14.50;10.20;;;;;;;18.83;52.33;100751.94;114755;1205;60757;-86
2021/11/03 06:34:31;;;;;;;15.10;10.30;;;;;;;18.82;52.28;100756.42;114531;1209;71373;-86
2021/11/03 06:37:09;;;;;;;13.60;10.10;;;;;;;18.83;52.27;100765.13;114660;1205;73332;-85
2021/11/03 06:39:56;;;;;;;15.80;9.80;;;;;;;18.83;52.30;100768.52;114552;1206;61314;-85
2021/11/03 06:43:38;;;;;;;14.40;10.50;;;;;;;18.82;52.34;100776.22;114630;1206;60219;-85
2021/11/03 06:46:58;;;;;;;;;;;;;;;;;;;;;
2021/11/03 06:50:19;;;;;;;11.60;9.30;;;;;;;18.81;52.36;100780.77;114268;1213;63774;-85
2021/11/03 06:53:21;;;;;;;14.20;9.20;;;;;;;18.80;52.32;100781.50;114202;1214;58086;-85
2021/11/03 06:55:52;;;;;;;13.50;9.10;;;;;;;18.81;52.24;100784.86;114215;1214;58091;-86
2021/11/03 06:58:41;;;;;;;12.80;9.70;;;;;;;18.81;52.27;100786.81;114218;1214;63826;-85
2021/11/03 07:01:25;;;;;;;12.10;9.30;;;;;;;18.82;52.22;100786.21;114141;1215;66069;-85
2021/11/03 07:03:59;;;;;;;11.60;9.00;;;;;;;18.82;52.10;100783.21;114248;1214;58025;-84
2021/11/03 07:06:30;;;;;;;11.80;8.90;;;;;;;18.82;52.04;100791.92;114254;1213;57983;-85
2021/11/03 07:09:28;;;;;;;12.40;8.50;;;;;;;18.83;52.04;100788.46;114209;1214;73654;-85
2021/11/03 07:12:02;;;;;;;13.60;9.30;;;;;;;18.83;52.05;100793.29;114316;1211;65825;-85
2021/11/03 07:14:54;;;;;;;11.60;9.50;;;;;;;18.84;52.09;100795.73;114264;1211;58109;-84
2021/11/03 07:17:45;;;;;;;12.90;9.30;;;;;;;18.85;52.09;100802.96;114319;1211;58106;-86
2021/11/03 07:20:15;;;;;;;12.60;9.40;;;;;;;18.86;52.24;100807.17;114379;1211;63749;-85
2021/11/03 07:23:04;;;;;;;;;;;;;;;;;;;;;
2021/11/03 07:25:46;;;;;;;11.70;8.90;;;;;;;18.91;52.20;100798.71;114637;1203;58105;-85
2021/11/03 07:28:15;;;;;;;12.30;8.80;;;;;;;18.94;52.26;100800.50;114992;1203;58165;-86
2021/11/03 07:31:00;;;;;;;12.00;9.00;;;;;;;18.97;52.38;100804.05;114914;1203;65171;-86
2021/11/03 07:33:37;;;;;;;11.80;8.60;;;;;;;19.01;52.37;100808.27;114924;1203;64867;-85
2021/11/03 07:36:19;;;;;;;11.40;8.70;;;;;;;19.04;52.31;100805.73;114910;1203;58129;-85
2021/11/03 07:38:54;;;;;;;11.60;8.40;;;;;;;19.08;52.22;100804.59;114786;1203;58366;-85
2021/11/03 07:41:20;;;;;;;13.20;8.70;;;;;;;19.13;52.13;100810.38;114846;1201;58177;-86
2021/11/03 07:43:58;;;;;;;12.30;9.50;;;;;;;19.17;52.23;100810.81;114971;1201;73597;-86
2021/11/03 07:46:48;;;;;;;11.00;8.70;;;;;;;19.21;52.28;100817.36;114881;1201;59674;-85
2021/11/03 07:50:28;;;;;;;;;;;;;;;;;;;;;
2021/11/03 08:06:10;;;;;;;12.00;8.30;;;;;;;19.42;52.07;100833.88;114768;1198;72262;-84
2021/11/03 08:09:07;;;;;;;10.90;8.10;;;;;;;19.44;52.08;100840.17;115186;1199;74073;-84
2021/11/03 08:11:56;;;;;;;11.60;8.00;;;;;;;19.45;52.07;100843.31;115189;1200;61159;-84
2021/11/03 08:15:41;;;;;;;15.20;10.00;;;;;;;19.47;52.05;100842.48;115158;1192;58779;-85
2021/11/03 08:18:07;;;;;;;16.60;10.40;;;;;;;19.49;51.77;100849.34;115154;1198;73141;-84
2021/11/03 08:20:37;;;;;;;17.00;11.80;;;;;;;19.50;51.68;100849.43;115117;1199;74591;-85
2021/11/03 08:23:20;;;;;;;18.20;11.40;;;;;;;19.50;51.60;100850.50;115121;1198;61096;-85
2021/11/03 08:26:14;;;;;;;16.50;10.70;;;;;;;19.51;51.40;100860.77;115145;1198;60016;-84
2021/11/03 08:29:02;;;;;;;14.50;10.10;;;;;;;19.52;51.31;100862.48;115142;1198;73487;-84
2021/11/03 08:31:34;;;;;;;14.00;9.60;;;;;;;19.55;51.21;100856.61;115107;1199;74137;-84
2021/11/03 08:34:21;;;;;;;14.70;9.60;;;;;;;19.57;51.20;100859.33;115057;1199;58166;-85
2021/11/03 08:36:54;;;;;;;12.60;9.10;;;;;;;19.60;51.08;100860.56;115131;1198;58250;-84
2021/11/03 08:39:23;;;;;;;13.70;9.40;;;;;;;19.64;50.96;100868.73;115114;1198;72024;-85
2021/11/03 08:41:52;;;;;;;11.90;8.20;;;;;;;19.65;50.91;100869.92;115110;1198;73267;-84
2021/11/03 08:44:21;;;;;;;13.50;9.00;;;;;;;19.67;50.96;100864.08;115157;1198;59786;-84
2021/11/03 08:47:13;;;;;;;;;;;;;;;;;;;;;
2021/11/03 08:50:12;;;;;;;11.30;7.80;;;;;;;19.70;50.77;100875.65;115178;1198;72207;-84
2021/11/03 08:53:18;;;;;;;11.00;7.60;;;;;;;19.71;50.86;100873.59;115164;1198;73093;-85
2021/11/03 08:56:02;;;;;;;11.20;7.90;;;;;;;19.74;50.79;100873.45;115184;1198;60448;-84
2021/11/03 08:58:28;;;;;;;11.40;7.50;;;;;;;19.76;50.73;100873.11;115241;1198;60123;-84
2021/11/03 09:00:55;;;;;;;10.70;7.50;;;;;;;19.79;50.79;100870.66;115116;1198;57984;-85
2021/11/03 09:03:20;;;;;;;11.20;7.60;;;;;;;19.80;50.74;100873.07;115080;1198;58938;-84
2021/11/03 09:05:46;;;;;;;11.30;7.80;;;;;;;19.81;50.60;100867.63;115237;1198;58177;-84
2021/11/03 09:08:13;;;;;;;11.70;7.40;;;;;;;19.83;50.66;100868.09;115113;1191;58268;-85
2021/11/03 09:10:45;;;;;;;13.80;7.80;;;;;;;19.85;50.47;100869.02;115121;1199;58142;-84
2021/11/03 09:13:24;;;;;;;10.50;7.40;;;;;;;19.86;50.35;100871.28;115152;1198;74819;-85
2021/11/03 09:16:02;;;;;;;10.20;7.30;;;;;;;19.88;50.38;100869.58;115182;1199;61259;-85
2021/11/03 09:18:31;;;;;;;11.70;7.00;;;;;;;19.89;50.36;100870.54;115107;1199;60890;-84
2021/11/03 09:21:08;;;;;;;12.50;7.30;;;;;;;19.90;50.40;100876.16;115214;1198;72176;-85
2021/11/03 09:23:36;;;;;;;11.40;7.40;;;;;;;19.91;50.38;100869.87;115224;1198;73667;-84
2021/11/03 09:26:03;;;;;;;11.80;6.90;;;;;;;19.91;50.35;100873.04;115281;1198;60933;-85
2021/11/03 09:28:39;;;;;;;10.00;6.90;;;;;;;19.93;50.34;100873.52;115129;1198;57697;-85
2021/11/03 09:31:18;;;;;;;11.60;6.80;;;;;;;19.94;50.16;100876.84;115121;1198;72624;-84
2021/11/03 09:33:55;;;;;;;13.20;7.50;;;;;;;19.96;50.17;100871.52;115126;1198;74728;-85
2021/11/03 09:36:32;;;;;;;10.40;6.70;;;;;;;19.97;50.10;100874.34;115101;1198;61080;-85
2021/11/03 09:38:57;;;;;;;9.90;6.70;;;;;;;19.98;49.99;100869.09;115154;1198;60231;-84
2021/11/03 09:41:31;;;;;;;13.80;7.40;;;;;;;19.98;50.07;100867.64;115246;1198;58372;-84
2021/11/03 09:44:24;;;;;;;9.70;6.90;;;;;;;19.99;49.94;100865.09;115199;1199;72378;-85
2021/11/03 09:46:55;;;;;;;9.90;7.10;;;;;;;19.99;49.93;100866.47;115127;1198;57991;-84
2021/11/03 09:49:35;;;;;;;8.80;6.40;;;;;;;20.01;49.94;100867.63;115144;1198;58430;-85
2021/11/03 09:52:11;;;;;;;10.90;7.60;;;;;;;20.02;49.99;100868.66;115176;1198;63602;-85
2021/11/03 09:54:41;;;;;;;10.40;7.30;;;;;;;20.02;49.86;100869.31;115133;1198;64939;-84
2021/11/03 09:57:53;;;;;;;9.30;6.90;;;;;;;20.03;49.87;100868.73;115143;1198;57915;-85
2021/11/03 10:01:05;;;;;;;10.40;7.40;;;;;;;20.04;49.79;100868.85;115140;1201;58051;-84
2021/11/03 10:04:40;;;;;;;10.40;6.70;;;;;;;20.04;49.77;100865.46;114775;1205;62432;-85
2021/11/03 10:08:16;;;;;;;13.10;8.30;;;;;;;20.05;49.78;100864.52;114342;1211;74919;-85
2021/11/03 10:11:29;;;;;;;11.40;8.10;;;;;;;20.03;49.81;100867.81;115010;1197;59463;-85
2021/11/03 10:14:08;;;;;;;15.80;8.80;;;;;;;20.03;49.68;100860.71;114863;1196;58338;-85
2021/11/03 10:16:42;;;;;;;12.90;8.80;;;;;;;20.03;49.64;100864.64;114916;1202;64230;-85
2021/11/03 10:19:33;;;;;;;12.90;9.30;;;;;;;20.03;49.60;100867.66;114929;1201;64926;-84
2021/11/03 10:22:35;;;;;;;13.70;9.40;;;;;;;20.03;49.65;100864.98;114651;1206;58029;-85
2021/11/03 10:25:24;;;;;;;15.70;10.20;;;;;;;20.04;49.53;100861.18;114535;1206;60925;-85
2021/11/03 10:28:04;;;;;;;14.70;9.60;;;;;;;20.04;49.69;100859.41;114569;1205;72600;-84
2021/11/03 10:31:10;;;;;;;;;;;;;;;;;;;;;
2021/11/03 10:34:04;;;;;;;13.20;9.20;;;;;;;20.05;49.72;100858.44;114610;1205;60025;-85
2021/11/03 10:36:40;;;;;;;13.90;8.70;;;;;;;20.06;49.84;100854.42;114594;1205;61488;-85
2021/11/03 10:39:18;;;;;;;12.70;9.40;;;;;;;20.08;49.65;100850.39;114484;1206;73842;-85
2021/11/03 10:41:52;;;;;;;14.20;10.20;;;;;;;20.08;49.86;100847.33;114517;1206;73558;-85
2021/11/03 10:44:34;;;;;;;14.40;9.60;;;;;;;20.08;49.76;100847.30;114548;1205;58900;-85
2021/11/03 10:47:15;;;;;;;13.60;9.10;;;;;;;20.08;49.72;100840.17;114611;1205;58223;-85
2021/11/03 10:50:22;;;;;;;;;;;;;;;;;;;;;
2021/11/03 10:53:14;;;;;;;14.20;9.00;;;;;;;20.09;49.73;100838.88;114673;1205;65824;-85
2021/11/03 10:56:23;;;;;;;15.00;9.30;;;;;;;20.09;49.83;100841.67;114615;1204;60866;-84
2021/11/03 10:59:18;;;;;;;13.30;8.90;;;;;;;20.10;49.94;100845.06;114792;1203;58131;-85
2021/11/03 11:01:52;;;;;;;16.00;8.90;;;;;;;20.10;49.99;100846.30;114848;1204;63641;-84
2021/11/03 11:04:30;;;;;;;15.90;8.80;;;;;;;20.11;50.09;100845.89;114775;1203;64946;-84
2021/11/03 11:07:23;;;;;;;13.40;8.90;;;;;;;20.13;50.10;100842.91;114919;1203;58097;-84
2021/11/03 11:10:12;;;;;;;11.50;8.70;;;;;;;20.14;50.18;100838.35;114913;1203;57978;-85
2021/11/03 11:12:44;;;;;;;;;;;;;;;20.15;49.99;100830.27;114828;1203;63568;-85
2021/11/03 11:15:24;;;;;;;11.10;7.80;;;;;;;20.14;50.10;100827.12;114781;1203;65772;-85
2021/11/03 11:19:04;;;;;;;11.30;7.90;;;;;;;20.15;50.08;100822.75;114923;1203;58139;-85
2021/11/03 11:21:59;;;;;;;13.50;8.30;;;;;;;20.15;50.10;100818.80;114424;1209;58324;-85
2021/11/03 11:24:40;;;;;;;13.70;9.20;;;;;;;20.16;50.00;100821.77;114438;1209;63178;-85
2021/11/03 11:27:28;;;;;;;13.40;8.40;;;;;;;20.16;49.99;100819.09;114433;1209;66125;-85
2021/11/03 11:30:47;;;;;;;12.50;8.50;;;;;;;20.18;49.93;100822.39;114419;1209;58208;-85
2021/11/03 11:34:13;;;;;;;11.00;8.10;;;;;;;20.18;50.00;100823.44;114413;1209;58488;-85
2021/11/03 11:37:12;;;;;;;13.40;8.20;;;;;;;20.19;50.00;100826.95;114394;1209;63711;-85
2021/11/03 11:39:56;;;;;;;12.90;8.20;;;;;;;20.20;50.13;100826.36;114487;1208;64771;-85
2021/11/03 11:42:44;;;;;;;13.30;8.50;;;;;;;20.21;50.09;100817.18;114522;1208;61360;-85
2021/11/03 11:45:32;;;;;;;11.50;8.10;;;;;;;20.20;50.00;100819.52;114501;1208;60283;-85
2021/11/03 11:48:06;;;;;;;12.60;8.60;;;;;;;20.21;49.96;100814.13;114505;1208;73443;-85
2021/11/03 11:51:08;;;;;;;11.00;8.20;;;;;;;20.23;50.01;100816.16;114471;1208;74557;-85
2021/11/03 11:54:25;;;;;;;11.50;8.60;;;;;;;20.23;49.96;100817.75;114434;1209;60247;-85
2021/11/03 11:57:35;;;;;;;12.20;8.30;;;;;;;20.21;49.91;100819.46;114273;1212;61478;-85
2021/11/03 12:00:24;;;;;;;12.40;8.00;;;;;;;20.20;50.03;100815.23;114421;1210;72323;-85
2021/11/03 12:03:28;;;;;;;14.10;7.90;;;;;;;20.20;49.90;100811.86;114247;1212;74104;-85
2021/11/03 12:06:06;;;;;;;11.80;8.00;;;;;;;20.19;49.94;100814.09;114215;1214;59661;-84
2021/11/03 12:08:52;;;;;;;;;;;;;;;20.17;50.02;100822.08;114189;1214;59288;-85
2021/11/03 12:11:21;;;;;;;11.10;7.30;;;;;;;20.14;50.03;100828.17;114230;1213;72207;-85
2021/11/03 12:13:49;;;;;;;10.30;7.30;;;;;;;20.14;50.02;100821.59;114117;1215;74628;-85
2021/11/03 12:16:55;;;;;;;10.40;6.60;;;;;;;20.13;49.94;100815.21;114244;1214;60107;-85
2021/11/03 12:19:59;;;;;;;11.60;7.40;;;;;;;20.10;50.01;100815.04;114108;1217;60151;-85
2021/11/03 12:22:57;;;;;;;10.90;7.00;;;;;;;20.08;50.09;100825.17;113992;1217;72270;-85
2021/11/03 12:25:35;;;;;;;10.40;7.60;;;;;;;20.07;50.05;100825.98;113562;1220;74690;-85
2021/11/03 12:28:53;;;;;;;10.20;7.70;;;;;;;20.04;50.02;100822.02;113408;1221;58005;-85
2021/11/03 12:31:32;;;;;;;10.30;6.90;;;;;;;20.02;50.20;100819.66;113484;1219;58266;-85
2021/11/03 12:34:07;;;;;;;11.60;7.10;;;;;;;20.01;50.08;100823.69;113598;1219;63900;-85
2021/11/03 12:37:33;;;;;;;10.30;7.20;;;;;;;19.99;50.14;100825.20;113757;1216;66223;-85
2021/11/03 12:40:47;;;;;;;;;;;;;;;;;;;;;
2021/11/03 12:43:31;;;;;;;9.90;7.00;;;;;;;19.95;50.25;100827.29;113938;1214;58237;-85
2021/11/03 12:46:12;;;;;;;10.30;7.40;;;;;;;19.93;50.28;100825.60;114168;1214;71784;-85
2021/11/03 12:48:58;;;;;;;10.90;7.10;;;;;;;19.92;50.42;100830.89;114237;1214;74548;-85
2021/11/03 12:51:46;;;;;;;10.10;7.20;;;;;;;19.90;50.33;100836.88;114255;1213;60727;-85
2021/11/03 12:54:50;;;;;;;10.90;7.00;;;;;;;19.87;50.48;100830.82;114206;1214;59912;-85
2021/11/03 12:58:02;;;;;;;;;;;;;;;;;;;;;
2021/11/03 13:00:54;;;;;;;8.20;6.10;;;;;;;19.84;50.57;100836.60;113780;1217;72426;-85
2021/11/03 13:03:36;;;;;;;;;;;;;;;;;;;;;
2021/11/03 13:07:04;;;;;;;9.80;6.40;;;;;;;19.81;50.44;100833.37;114127;1214;60428;-85
2021/11/03 13:10:04;;;;;;;8.40;6.50;;;;;;;19.78;50.54;100833.14;113811;1217;72304;-85
2021/11/03 13:12:41;;;;;;;10.10;7.20;;;;;;;19.78;50.54;100839.24;114020;1216;74915;-85
2021/11/03 13:15:50;;;;;;;9.60;6.70;;;;;;;19.77;50.55;100843.98;114222;1213;59480;-85
2021/11/03 13:19:05;;;;;;;10.70;6.80;;;;;;;19.75;50.69;100849.96;114294;1213;61066;-85
2021/11/03 13:21:49;;;;;;;9.00;6.60;;;;;;;19.74;50.60;100852.91;114145;1215;72564;-85
2021/11/03 13:24:41;;;;;;;10.70;6.50;;;;;;;19.73;50.59;100849.20;114085;1214;74032;-85
2021/11/03 13:27:21;;;;;;;9.30;6.50;;;;;;;19.72;50.62;100849.63;113836;1217;62456;-86
2021/11/03 13:29:56;;;;;;;9.90;7.00;;;;;;;19.71;50.53;100849.85;113691;1217;59819;-85
2021/11/03 13:32:26;;;;;;;10.00;6.90;;;;;;;19.71;50.51;100849.71;113639;1219;72525;-85
2021/11/03 13:35:10;;;;;;;9.30;7.00;;;;;;;19.70;50.52;100849.23;113766;1217;74708;-85
2021/11/03 13:38:16;;;;;;;12.00;6.90;;;;;;;19.70;50.54;100851.76;114127;1212;59909;-85
2021/11/03 13:41:26;;;;;;;;;;;;;;;;;;;;;
2021/11/03 13:44:36;;;;;;;9.30;6.50;;;;;;;19.67;50.62;100857.45;114241;1213;71781;-85
2021/11/03 13:47:42;;;;;;;;;;;;;;;;;;;;;
2021/11/03 13:50:28;;;;;;;9.20;6.60;;;;;;;19.66;50.71;100849.11;114076;1215;59928;-85
2021/11/03 13:53:29;;;;;;;8.50;6.30;;;;;;;19.66;50.61;100846.84;114077;1215;60031;-85
2021/11/03 13:56:16;;;;;;;10.00;6.60;;;;;;;19.65;50.70;100834.21;114092;1215;72187;-86
2021/11/03 13:59:27;;;;;;;10.30;7.20;;;;;;;19.64;50.67;100838.38;114233;1211;74774;-86
2021/11/03 14:02:28;;;;;;;8.60;6.30;;;;;;;19.63;50.71;100845.22;114420;1211;60014;-86
2021/11/03 14:05:22;;;;;;;10.60;6.80;;;;;;;19.63;50.70;100850.23;114508;1208;60212;-87
2021/11/03 14:07:59;;;;;;;8.60;7.00;;;;;;;19.62;50.82;100852.59;114559;1207;73389;-86
2021/11/03 14:10:49;;;;;;;11.40;7.10;;;;;;;19.62;50.81;100856.33;114591;1207;74182;-86
2021/11/03 14:13:17;;;;;;;9.40;6.30;;;;;;;19.62;50.71;100860.48;114605;1207;60015;-86
2021/11/03 14:15:43;;;;;;;10.70;6.90;;;;;;;19.62;50.78;100864.21;114589;1207;60553;-86
2021/11/03 14:18:16;;;;;;;10.00;7.50;;;;;;;19.61;50.75;100866.04;114473;1208;72879;-86
2021/11/03 14:21:08;;;;;;;11.20;7.30;;;;;;;19.61;50.77;100868.71;114579;1207;74395;-86
2021/11/03 14:24:03;;;;;;;9.10;6.70;;;;;;;19.61;50.71;100871.44;114570;1204;60110;-86
2021/11/03 14:27:02;;;;;;;8.50;6.10;;;;;;;19.61;50.81;100875.70;114832;1203;60104;-86
2021/11/03 14:29:33;;;;;;;9.50;7.00;;;;;;;19.61;50.93;100876.61;114854;1203;71408;-86
2021/11/03 14:32:11;;;;;;;9.50;6.60;;;;;;;19.60;50.87;100881.63;114799;1204;73699;-86
2021/11/03 14:35:38;;;;;;;;;;;;;;;;;;;;;
2021/11/03 14:38:33;;;;;;;8.20;6.10;;;;;;;19.58;50.80;100891.55;114571;1207;59856;-86
2021/11/03 14:41:29;;;;;;;10.50;7.00;;;;;;;19.59;50.83;100893.29;114606;1207;72297;-86
2021/11/03 14:44:39;;;;;;;8.00;6.40;;;;;;;19.58;50.83;100891.01;114574;1207;74802;-87
2021/11/03 14:47:25;;;;;;;;;;;;;;;;;;;;;
2021/11/03 14:50:20;;;;;;;8.30;5.90;;;;;;;19.58;50.87;100890.35;114609;1207;60107;-86
2021/11/03 14:53:01;;;;;;;9.50;6.30;;;;;;;19.57;50.88;100894.83;114613;1208;74160;-86
2021/11/03 14:55:52;;;;;;;9.50;6.60;;;;;;;19.57;50.84;100900.05;114612;1207;73743;-86
2021/11/03 14:58:41;;;;;;;;;;;;;;;;;;;;;
2021/11/03 15:02:00;;;;;;;;;;;;;;;;;;;;;
2021/11/03 15:04:54;;;;;;;8.40;5.80;;;;;;;19.54;50.96;100912.17;114366;1211;73249;-86
2021/11/03 15:07:44;;;;;;;;;;;;;;;;;;;;;
2021/11/03 15:10:27;;;;;;;8.70;6.80;;;;;;;19.54;50.92;100906.46;114410;1211;61078;-86
2021/11/03 15:13:46;;;;;;;8.60;6.30;;;;;;;19.54;50.95;100909.02;114318;1212;58674;-86
2021/11/03 15:16:32;;;;;;;7.40;6.00;;;;;;;19.52;51.02;100910.34;114607;1207;72084;-86
2021/11/03 15:19:05;;;;;;;11.80;6.40;;;;;;;19.52;50.96;100907.48;114489;1207;73695;-86
2021/11/03 15:21:39;;;;;;;8.60;6.20;;;;;;;19.53;50.92;100898.88;114493;1207;59991;-86
2021/11/03 15:24:31;;;;;;;7.90;6.20;;;;;;;19.53;51.00;100897.81;114493;1207;60965;-87
2021/11/03 15:27:37;;;;;;;8.30;6.00;;;;;;;19.52;51.06;100901.80;114563;1207;72102;-86
2021/11/03 15:30:21;;;;;;;8.60;6.30;;;;;;;19.51;51.00;100901.64;114543;1208;74502;-86
2021/11/03 15:33:09;;;;;;;;;;;;;;;;;;;;;
2021/11/03 15:36:33;;;;;;;8.50;6.20;;;;;;;19.50;51.12;100907.98;114573;1207;58828;-86
2021/11/03 15:39:36;;;;;;;8.90;6.10;;;;;;;19.50;51.08;100913.73;114626;1203;72790;-86
2021/11/03 15:43:08;;;;;;;9.10;6.10;;;;;;;19.49;51.05;100914.48;114632;1206;73444;-86
2021/11/03 15:45:59;;;;;;;;;;;;;;;;;;;;;
2021/11/03 15:49:00;;;;;;;8.30;6.00;;;;;;;19.48;51.18;100918.10;114624;1206;59906;-86
2021/11/03 15:52:01;;;;;;;;;;;;;;;;;;;;;
2021/11/03 15:54:53;;;;;;;8.20;6.20;;;;;;;19.48;51.14;100925.80;114615;1206;74743;-87
2021/11/03 15:58:08;;;;;;;;;;;;;;;;;;;;;
2021/11/03 16:01:32;;;;;;;;;;;;;;;;;;;;;
2021/11/03 16:04:41;;;;;;;8.90;6.80;;;;;;;19.46;51.28;100915.94;113592;1220;72267;-86
2021/11/03 16:07:12;;;;;;;8.80;6.00;;;;;;;19.45;51.16;100920.77;113581;1220;74470;-87
2021/11/03 16:09:58;;;;;;;8.90;6.70;;;;;;;19.46;51.15;100922.02;113641;1219;58158;-86
2021/11/03 16:12:44;;;;;;;8.50;6.20;;;;;;;19.45;51.14;100927.58;113681;1219;58160;-86
2021/11/03 16:15:30;;;;;;;8.40;6.00;;;;;;;19.45;51.22;100931.66;113685;1219;63800;-86
2021/11/03 16:18:02;;;;;;;8.80;6.00;;;;;;;19.45;51.30;100933.29;113593;1219;65487;-86
2021/11/03 16:20:51;;;;;;;9.40;6.40;;;;;;;19.45;51.38;100927.58;113669;1219;58057;-86
2021/11/03 16:23:29;;;;;;;8.60;6.20;;;;;;;19.45;51.18;100925.28;113606;1219;58033;-86
2021/11/03 16:26:12;;;;;;;9.80;6.20;;;;;;;19.44;51.26;100925.30;113602;1219;73750;-85
2021/11/03 16:28:58;;;;;;;9.00;6.40;;;;;;;19.44;51.15;100925.50;113588;1220;65010;-85
2021/11/03 16:31:55;;;;;;;9.80;6.80;;;;;;;19.44;51.16;100922.11;113598;1219;58099;-86
2021/11/03 16:34:43;;;;;;;9.50;6.50;;;;;;;19.43;51.29;100916.08;113782;1218;58173;-85
2021/11/03 16:37:39;;;;;;;;;;;;;;;;;;;;;
2021/11/03 16:52:59;;;;;;;8.30;6.30;;;;;;;19.41;51.38;100919.25;114544;1196;73594;-85
2021/11/03 16:55:48;;;;;;;;;;;;;;;;;;;;;
2021/11/03 16:58:32;;;;;;;9.40;7.10;;;;;;;19.41;51.23;100947.08;115226;1198;59830;-87
2021/11/03 17:01:05;;;;;;;9.00;6.60;;;;;;;19.41;51.29;100954.77;115231;1198;73031;-87